createdAt,value
2022-10-08T00:01:26.830Z,17.88
2022-10-08T00:03:57.030Z,16.55
2022-10-08T00:06:35.744Z,18.70
2022-10-08T00:09:08.551Z,18.38
2022-10-08T00:11:40.094Z,16.10
2022-10-08T00:14:09.333Z,17.27
2022-10-08T00:16:41.663Z,18.48
2022-10-08T00:19:15.751Z,18.92
2022-10-08T00:21:45.204Z,17.20
2022-10-08T00:24:18.283Z,18.00
2022-10-08T00:26:46.394Z,18.05
2022-10-08T00:29:17.702Z,17.25
2022-10-08T00:31:48.551Z,17.17
2022-10-08T00:34:23.807Z,18.90
2022-10-08T00:36:53.971Z,19.92
2022-10-08T00:39:24.715Z,22.85
2022-10-08T00:41:55.172Z,21.92
2022-10-08T00:44:53.708Z,21.27
2022-10-08T00:47:32.736Z,21.08
2022-10-08T00:50:09.448Z,21.55
2022-10-08T00:52:48.316Z,21.88
2022-10-08T00:55:20.680Z,20.23
2022-10-08T00:57:48.852Z,21.80
2022-10-08T01:00:22.120Z,20.10
2022-10-08T01:02:49.971Z,21.33
2022-10-08T01:05:28.311Z,20.20
2022-10-08T01:08:12.966Z,20.48
2022-10-08T01:11:33.729Z,21.30
2022-10-08T01:14:41.910Z,20.27
2022-10-08T01:18:07.704Z,19.73
2022-10-08T01:21:02.500Z,21.55
2022-10-08T01:24:03.650Z,21.05
2022-10-08T01:27:01.370Z,20.50
2022-10-08T01:29:42.190Z,23.23
2022-10-08T01:32:20.259Z,22.30
2022-10-08T01:34:57.966Z,22.45
2022-10-08T01:37:36.607Z,23.48
2022-10-08T01:40:14.344Z,22.48
2022-10-08T01:42:42.185Z,22.75
2022-10-08T01:45:19.821Z,22.13
2022-10-08T01:47:49.591Z,22.33
2022-10-08T01:50:28.257Z,24.05
2022-10-08T01:53:02.237Z,24.77
2022-10-08T01:55:37.433Z,24.77
2022-10-08T01:58:15.112Z,25.20
2022-10-08T02:00:43.222Z,24.83
2022-10-08T02:03:14.024Z,25.90
2022-10-08T02:05:50.534Z,24.48
2022-10-08T02:08:18.836Z,23.15
2022-10-08T02:10:46.056Z,23.40
2022-10-08T02:13:13.649Z,22.73
2022-10-08T02:15:57.386Z,21.23
2022-10-08T02:19:04.625Z,21.92
2022-10-08T02:21:34.367Z,20.65
2022-10-08T02:24:26.889Z,22.65
2022-10-08T02:26:59.206Z,21.45
2022-10-08T02:30:14.713Z,22.00
2022-10-08T02:33:04.412Z,21.52
2022-10-08T02:35:58.896Z,23.33
2022-10-08T02:38:39.317Z,23.25
2022-10-08T02:41:11.228Z,23.48
2022-10-08T02:43:49.690Z,24.83
2022-10-08T02:46:24.281Z,23.85
2022-10-08T02:49:13.560Z,24.20
2022-10-08T02:51:49.533Z,23.65
2022-10-08T02:54:21.556Z,23.30
2022-10-08T02:57:35.526Z,23.45
2022-10-08T03:00:04.284Z,22.55
2022-10-08T03:03:08.258Z,22.20
2022-10-08T03:05:39.893Z,25.55
2022-10-08T03:08:12.734Z,25.30
2022-10-08T03:10:43.726Z,25.83
2022-10-08T03:13:13.058Z,27.58
2022-10-08T03:15:42.661Z,28.15
2022-10-08T03:18:12.564Z,29.38
2022-10-08T03:20:45.614Z,29.13
2022-10-08T03:23:17.561Z,30.15
2022-10-08T03:25:45.554Z,28.67
2022-10-08T03:28:13.001Z,27.48
2022-10-08T03:30:40.501Z,28.50
2022-10-08T03:33:07.774Z,28.80
2022-10-08T03:35:35.336Z,25.38
2022-10-08T03:38:02.846Z,27.02
2022-10-08T03:40:30.154Z,26.30
2022-10-08T03:42:57.310Z,25.75
2022-10-08T03:45:24.710Z,27.10
2022-10-08T03:47:52.635Z,27.38
2022-10-08T03:50:22.942Z,27.75
2022-10-08T03:52:50.526Z,27.05
2022-10-08T03:55:19.259Z,29.63
2022-10-08T03:57:46.446Z,29.98
2022-10-08T04:00:14.223Z,28.67
2022-10-08T04:02:41.509Z,25.88
2022-10-08T04:05:09.203Z,25.88
2022-10-08T04:07:36.587Z,28.23
2022-10-08T04:10:04.424Z,25.98
2022-10-08T04:12:31.585Z,25.80
2022-10-08T04:14:58.976Z,24.08
2022-10-08T04:17:26.136Z,23.58
2022-10-08T04:19:53.413Z,23.77
2022-10-08T04:22:20.897Z,24.30
2022-10-08T04:24:48.085Z,25.50
2022-10-08T04:27:15.356Z,28.15
2022-10-08T04:29:42.788Z,26.67
2022-10-08T04:32:09.967Z,27.00
2022-10-08T04:34:37.128Z,26.25
2022-10-08T04:37:04.574Z,25.10
2022-10-08T04:39:31.733Z,24.70
2022-10-08T04:41:59.084Z,25.10
2022-10-08T04:44:26.572Z,24.83
2022-10-08T04:46:53.852Z,26.23
2022-10-08T04:49:21.020Z,26.27
2022-10-08T04:51:48.562Z,25.75
2022-10-08T04:54:16.178Z,26.02
2022-10-08T04:56:43.462Z,26.25
2022-10-08T04:59:10.863Z,26.27
2022-10-08T05:01:38.371Z,24.00
2022-10-08T05:04:05.630Z,26.63
2022-10-08T05:06:33.313Z,24.67
2022-10-08T05:09:05.287Z,25.70
2022-10-08T05:11:34.181Z,28.35
2022-10-08T05:14:02.329Z,25.38
2022-10-08T05:16:29.736Z,25.88
2022-10-08T05:18:57.848Z,25.98
2022-10-08T05:21:29.882Z,26.23
2022-10-08T05:24:03.512Z,27.15
2022-10-08T05:26:56.989Z,25.10
2022-10-08T05:29:22.576Z,28.02
2022-10-08T05:31:49.982Z,25.92
2022-10-08T05:34:17.288Z,29.25
2022-10-08T05:36:44.667Z,34.30
2022-10-08T05:39:12.153Z,33.60
2022-10-08T05:41:39.476Z,37.28
2022-10-08T05:44:09.798Z,36.60
2022-10-08T05:46:39.264Z,38.38
2022-10-08T05:49:08.844Z,38.13
2022-10-08T05:51:36.533Z,38.13
2022-10-08T05:54:04.231Z,34.55
2022-10-08T05:56:31.838Z,34.63
2022-10-08T05:58:59.386Z,32.75
2022-10-08T06:01:31.556Z,29.73
2022-10-08T06:04:09.071Z,29.52
2022-10-08T06:06:39.786Z,26.88
2022-10-08T06:09:09.049Z,29.52
2022-10-08T06:11:37.848Z,25.52
2022-10-08T06:14:09.808Z,25.65
2022-10-08T06:16:37.757Z,24.77
2022-10-08T06:19:07.225Z,25.38
2022-10-08T06:21:35.784Z,27.30
2022-10-08T06:24:07.225Z,23.17
2022-10-08T06:26:38.502Z,22.77
2022-10-08T06:29:10.439Z,25.50
2022-10-08T06:31:37.956Z,25.85
2022-10-08T06:34:05.488Z,25.63
2022-10-08T06:36:35.136Z,30.73
2022-10-08T06:39:10.752Z,31.60
2022-10-08T06:41:38.547Z,28.75
2022-10-08T06:44:10.840Z,27.33
2022-10-08T06:46:38.408Z,24.48
2022-10-08T06:49:06.393Z,25.58
2022-10-08T06:51:34.682Z,26.67
2022-10-08T06:54:07.343Z,27.98
2022-10-08T06:56:37.768Z,23.85
2022-10-08T06:59:07.232Z,25.38
2022-10-08T07:01:35.926Z,26.20
2022-10-08T07:04:05.779Z,19.25
2022-10-08T07:06:33.070Z,18.50
2022-10-08T07:09:02.261Z,21.83
2022-10-08T07:11:32.451Z,18.15
2022-10-08T07:13:59.742Z,17.65
2022-10-08T07:16:28.741Z,16.33
2022-10-08T07:18:58.662Z,15.88
2022-10-08T07:21:28.087Z,15.85
2022-10-08T07:23:56.290Z,17.13
2022-10-08T07:26:27.450Z,15.68
2022-10-08T07:29:13.854Z,13.73
2022-10-08T07:31:41.561Z,12.52
2022-10-08T07:34:12.830Z,12.30
2022-10-08T07:36:41.245Z,12.70
2022-10-08T07:39:14.265Z,12.90
2022-10-08T07:41:42.452Z,11.70
2022-10-08T07:44:12.662Z,10.00
2022-10-08T07:46:46.007Z,9.25
2022-10-08T07:49:14.709Z,9.95
2022-10-08T07:51:42.456Z,10.30
2022-10-08T07:54:16.587Z,9.02
2022-10-08T07:56:45.144Z,9.82
2022-10-08T07:59:15.165Z,9.98
2022-10-08T08:01:43.744Z,8.93
2022-10-08T08:04:12.394Z,9.02
2022-10-08T08:06:44.294Z,8.73
2022-10-08T08:09:12.278Z,7.20
2022-10-08T08:11:40.509Z,8.85
2022-10-08T08:14:08.431Z,8.18
2022-10-08T08:16:35.979Z,7.53
2022-10-08T08:19:04.193Z,7.90
2022-10-08T08:21:36.328Z,8.38
2022-10-08T08:24:11.641Z,9.15
2022-10-08T08:26:43.168Z,8.82
2022-10-08T08:29:18.406Z,10.00
2022-10-08T08:31:49.472Z,8.50
2022-10-08T08:34:25.040Z,10.00
2022-10-08T08:36:53.985Z,9.63
2022-10-08T08:39:27.893Z,9.52
2022-10-08T08:42:19.130Z,8.90
2022-10-08T08:45:18.881Z,10.40
2022-10-08T08:48:28.981Z,8.65
2022-10-08T08:50:59.523Z,8.80
2022-10-08T08:53:28.112Z,7.25
2022-10-08T08:56:00.178Z,9.05
2022-10-08T08:58:51.594Z,8.18
2022-10-08T09:01:43.697Z,6.35
2022-10-08T09:04:45.522Z,7.90
2022-10-08T09:07:23.203Z,6.70
2022-10-08T09:09:58.271Z,8.02
2022-10-08T09:12:41.751Z,7.25
2022-10-08T09:15:24.471Z,10.88
2022-10-08T09:17:53.263Z,7.22
2022-10-08T09:20:25.664Z,7.82
2022-10-08T09:22:54.973Z,7.63
2022-10-08T09:25:26.039Z,8.80
2022-10-08T09:27:58.008Z,9.02
2022-10-08T09:30:29.985Z,7.00
2022-10-08T09:33:03.313Z,8.65
2022-10-08T09:35:34.147Z,8.07
2022-10-08T09:38:05.824Z,12.55
2022-10-08T09:40:33.733Z,9.35
2022-10-08T09:43:17.898Z,9.27
2022-10-08T09:45:49.963Z,7.90
2022-10-08T09:48:28.828Z,8.95
2022-10-08T09:51:17.742Z,9.95
2022-10-08T09:53:54.469Z,8.40
2022-10-08T09:56:31.519Z,9.40
2022-10-08T09:59:05.975Z,9.43
2022-10-08T10:01:33.477Z,9.50
2022-10-08T10:04:03.641Z,10.30
2022-10-08T10:06:38.652Z,9.73
2022-10-08T10:09:11.586Z,9.63
2022-10-08T10:11:43.018Z,10.88
2022-10-08T10:14:50.045Z,11.32
2022-10-08T10:17:45.951Z,8.60
2022-10-08T10:20:42.088Z,9.23
2022-10-08T10:23:18.958Z,7.90
2022-10-08T10:26:11.580Z,9.10
2022-10-08T10:28:48.412Z,19.88
2022-10-08T10:31:42.118Z,8.80
2022-10-08T10:34:21.161Z,8.93
2022-10-08T10:36:56.575Z,10.02
2022-10-08T10:39:43.653Z,9.35
2022-10-08T10:42:14.732Z,16.13
2022-10-08T10:45:16.105Z,15.55
2022-10-08T10:47:43.502Z,12.00
2022-10-08T10:50:16.005Z,9.45
2022-10-08T10:53:11.465Z,8.00
2022-10-08T10:55:55.745Z,8.48
2022-10-08T10:59:21.311Z,7.82
2022-10-08T11:02:13.910Z,8.02
2022-10-08T11:05:00.743Z,8.32
2022-10-08T11:08:02.175Z,7.47
2022-10-08T11:10:53.559Z,7.80
2022-10-08T11:13:44.199Z,6.80
2022-10-08T11:16:23.893Z,7.65
2022-10-08T11:19:00.542Z,8.27
2022-10-08T11:22:20.715Z,7.38
2022-10-08T11:25:28.129Z,10.77
2022-10-08T11:28:28.328Z,9.07
2022-10-08T11:31:15.912Z,8.43
2022-10-08T11:33:46.016Z,7.32
2022-10-08T11:36:32.905Z,6.72
2022-10-08T11:39:21.711Z,14.52
2022-10-08T11:42:15.455Z,7.45
2022-10-08T11:44:43.096Z,5.72
2022-10-08T11:47:35.070Z,5.82
2022-10-08T11:50:05.891Z,5.97
2022-10-08T11:52:34.761Z,9.57
2022-10-08T11:55:02.418Z,5.72
2022-10-08T11:58:03.003Z,5.97
2022-10-08T12:00:46.791Z,5.95
2022-10-08T12:03:31.970Z,6.25
2022-10-08T12:06:39.221Z,5.43
2022-10-08T12:09:17.449Z,6.35
2022-10-08T12:11:50.645Z,5.93
2022-10-08T12:14:18.275Z,6.03
2022-10-08T12:16:48.807Z,6.20
2022-10-08T12:19:34.701Z,5.63
2022-10-08T12:22:12.610Z,5.90
2022-10-08T12:24:39.693Z,6.18
2022-10-08T12:27:23.376Z,5.88
2022-10-08T12:30:07.043Z,6.22
2022-10-08T12:32:43.531Z,9.20
2022-10-08T12:35:38.195Z,6.97
2022-10-08T12:38:33.447Z,6.28
2022-10-08T12:41:15.184Z,6.47
2022-10-08T12:44:18.168Z,6.15
2022-10-08T12:47:18.189Z,9.73
2022-10-08T12:50:38.736Z,7.18
2022-10-08T12:53:08.517Z,6.70
2022-10-08T12:55:49.993Z,9.52
2022-10-08T12:58:24.976Z,6.20
2022-10-08T13:00:58.958Z,7.10
2022-10-08T13:03:26.455Z,6.93
2022-10-08T13:05:57.819Z,7.07
2022-10-08T13:08:38.860Z,7.18
2022-10-08T13:11:11.977Z,5.78
2022-10-08T13:13:39.064Z,5.55
2022-10-08T13:16:47.217Z,6.53
2022-10-08T13:19:26.558Z,5.57
2022-10-08T13:21:57.816Z,6.65
2022-10-08T13:24:27.491Z,6.60
2022-10-08T13:26:56.153Z,6.88
2022-10-08T13:29:37.505Z,5.63
2022-10-08T13:32:14.009Z,6.57
2022-10-08T13:34:41.236Z,6.78
2022-10-08T13:37:25.597Z,6.28
2022-10-08T13:40:11.467Z,6.20
2022-10-08T13:42:55.359Z,6.07
2022-10-08T13:45:26.498Z,6.00
2022-10-08T13:47:55.127Z,5.68
2022-10-08T13:50:24.194Z,5.70
2022-10-08T13:52:59.306Z,6.95
2022-10-08T13:55:26.896Z,6.22
2022-10-08T13:58:01.949Z,5.75
2022-10-08T14:00:32.182Z,5.90
2022-10-08T14:02:59.883Z,5.53
2022-10-08T14:05:30.621Z,5.70
2022-10-08T14:08:07.409Z,5.97
2022-10-08T14:10:34.816Z,6.15
2022-10-08T14:13:02.280Z,6.25
2022-10-08T14:15:29.537Z,6.80
2022-10-08T14:17:56.726Z,6.85
2022-10-08T14:20:24.786Z,6.75
2022-10-08T14:22:52.367Z,7.15
2022-10-08T14:25:23.940Z,7.88
2022-10-08T14:27:51.904Z,7.75
2022-10-08T14:30:20.053Z,8.32
2022-10-08T14:32:47.381Z,9.05
2022-10-08T14:35:15.117Z,8.50
2022-10-08T14:37:42.348Z,8.85
2022-10-08T14:40:18.313Z,8.02
2022-10-08T14:42:46.617Z,7.82
2022-10-08T14:45:14.443Z,7.50
2022-10-08T14:47:42.322Z,8.82
2022-10-08T14:50:10.134Z,8.25
2022-10-08T14:52:43.258Z,16.42
2022-10-08T14:55:12.223Z,9.38
2022-10-08T14:57:39.501Z,10.32
2022-10-08T15:00:08.097Z,9.77
2022-10-08T15:02:35.828Z,9.63
2022-10-08T15:05:03.157Z,9.60
2022-10-08T15:07:30.916Z,11.02
2022-10-08T15:09:58.598Z,11.00
2022-10-08T15:12:25.817Z,12.27
2022-10-08T15:14:53.002Z,13.02
2022-10-08T15:17:20.469Z,12.13
2022-10-08T15:19:47.885Z,10.30
2022-10-08T15:22:15.101Z,12.35
2022-10-08T15:24:42.534Z,15.27
2022-10-08T15:27:09.777Z,11.68
2022-10-08T15:29:36.978Z,10.43
2022-10-08T15:32:04.497Z,9.25
2022-10-08T15:34:31.767Z,11.50
2022-10-08T15:36:59.059Z,11.85
2022-10-08T15:39:26.588Z,11.35
2022-10-08T15:41:55.376Z,11.65
2022-10-08T15:44:27.933Z,12.07
2022-10-08T15:47:08.264Z,11.55
2022-10-08T15:49:41.953Z,13.65
2022-10-08T15:52:14.353Z,11.77
2022-10-08T15:54:42.765Z,13.52
2022-10-08T15:57:13.437Z,12.65
2022-10-08T15:59:41.507Z,13.35
2022-10-08T16:02:16.662Z,13.40
2022-10-08T16:04:48.355Z,14.98
2022-10-08T16:07:17.178Z,15.65
2022-10-08T16:09:44.528Z,15.38
2022-10-08T16:12:11.933Z,13.95
2022-10-08T16:14:39.123Z,13.38
2022-10-08T16:17:06.542Z,13.95
2022-10-08T16:19:34.019Z,11.98
2022-10-08T16:22:01.381Z,21.67
2022-10-08T16:24:28.807Z,14.57
2022-10-08T16:26:56.235Z,15.70
2022-10-08T16:29:23.459Z,14.57
2022-10-08T16:31:50.873Z,13.65
2022-10-08T16:34:21.787Z,13.65
2022-10-08T16:36:50.116Z,19.73
2022-10-08T16:39:21.221Z,16.35
2022-10-08T16:41:49.456Z,16.33
2022-10-08T16:44:19.884Z,16.60
2022-10-08T16:46:52.445Z,16.05
2022-10-08T16:49:26.068Z,16.52
2022-10-08T16:52:04.743Z,17.13
2022-10-08T16:54:33.187Z,17.67
2022-10-08T16:57:00.831Z,16.45
2022-10-08T16:59:29.750Z,16.10
2022-10-08T17:01:59.831Z,17.15
2022-10-08T17:04:29.833Z,19.60
2022-10-08T17:06:57.370Z,19.13
2022-10-08T17:09:24.811Z,19.50
2022-10-08T17:11:52.633Z,20.13
2022-10-08T17:14:20.033Z,19.67
2022-10-08T17:16:50.095Z,18.45
2022-10-08T17:19:18.191Z,17.15
2022-10-08T17:21:45.948Z,17.63
2022-10-08T17:24:13.773Z,17.88
2022-10-08T17:26:42.106Z,18.65
2022-10-08T17:29:12.555Z,19.88
2022-10-08T17:31:40.258Z,19.63
2022-10-08T17:34:08.839Z,17.52
2022-10-08T17:36:39.446Z,19.33
2022-10-08T17:39:10.466Z,22.48
2022-10-08T17:41:40.314Z,22.00
2022-10-08T17:44:10.141Z,21.95
2022-10-08T17:46:43.727Z,22.95
2022-10-08T17:49:12.458Z,22.27
2022-10-08T17:51:39.857Z,23.88
2022-10-08T17:54:12.314Z,20.60
2022-10-08T17:56:40.908Z,23.15
2022-10-08T17:59:12.989Z,20.75
2022-10-08T18:01:44.807Z,19.50
2022-10-08T18:04:16.364Z,22.85
2022-10-08T18:06:48.821Z,23.35
2022-10-08T18:09:21.396Z,25.05
2022-10-08T18:11:53.342Z,24.20
2022-10-08T18:14:22.454Z,23.08
2022-10-08T18:16:50.836Z,24.45
2022-10-08T18:19:19.197Z,23.58
2022-10-08T18:21:46.759Z,24.45
2022-10-08T18:24:15.810Z,24.77
2022-10-08T18:26:43.778Z,25.83
2022-10-08T18:29:13.856Z,24.55
2022-10-08T18:31:43.801Z,24.45
2022-10-08T18:34:17.705Z,23.88
2022-10-08T18:36:46.538Z,22.33
2022-10-08T18:39:21.546Z,24.70
2022-10-08T18:41:53.449Z,24.30
2022-10-08T18:44:24.544Z,24.98
2022-10-08T18:46:52.619Z,22.98
2022-10-08T18:49:30.908Z,21.83
2022-10-08T18:51:59.069Z,24.25
2022-10-08T18:54:26.651Z,24.27
2022-10-08T18:56:55.434Z,22.60
2022-10-08T18:59:23.545Z,25.10
2022-10-08T19:01:51.298Z,23.30
2022-10-08T19:04:22.302Z,24.38
2022-10-08T19:06:53.513Z,25.45
2022-10-08T19:09:21.558Z,25.70
2022-10-08T19:11:52.287Z,25.40
2022-10-08T19:14:22.652Z,25.40
2022-10-08T19:16:51.319Z,25.77
2022-10-08T19:19:22.222Z,26.42
2022-10-08T19:21:50.546Z,24.75
2022-10-08T19:24:22.466Z,24.88
2022-10-08T19:26:50.947Z,23.88
2022-10-08T19:29:25.166Z,25.00
2022-10-08T19:31:52.753Z,23.15
2022-10-08T19:34:24.891Z,24.17
2022-10-08T19:36:52.866Z,24.42
2022-10-08T19:39:25.091Z,25.20
2022-10-08T19:41:52.684Z,25.10
2022-10-08T19:44:21.216Z,25.17
2022-10-08T19:46:49.279Z,23.77
2022-10-08T19:49:18.437Z,26.80
2022-10-08T19:51:45.852Z,24.85
2022-10-08T19:54:13.499Z,26.05
2022-10-08T19:56:41.501Z,28.67
2022-10-08T19:59:11.687Z,26.25
2022-10-08T20:01:41.065Z,26.17
2022-10-08T20:04:09.751Z,26.10
2022-10-08T20:06:41.255Z,25.23
2022-10-08T20:09:12.943Z,25.65
2022-10-08T20:11:43.589Z,26.30
2022-10-08T20:14:13.189Z,25.45
2022-10-08T20:16:43.025Z,25.92
2022-10-08T20:19:20.764Z,26.25
2022-10-08T20:21:50.499Z,24.98
2022-10-08T20:24:19.024Z,24.88
2022-10-08T20:26:49.027Z,24.75
2022-10-08T20:29:24.329Z,24.67
2022-10-08T20:31:55.528Z,24.50
2022-10-08T20:34:31.254Z,23.27
2022-10-08T20:37:01.643Z,24.85
2022-10-08T20:39:30.199Z,24.05
2022-10-08T20:41:58.496Z,25.25
2022-10-08T20:44:26.002Z,22.50
2022-10-08T20:46:53.397Z,25.42
2022-10-08T20:49:20.770Z,22.85
2022-10-08T20:51:48.910Z,26.33
2022-10-08T20:54:17.487Z,23.05
2022-10-08T20:56:45.250Z,24.35
2022-10-08T20:59:17.776Z,22.92
2022-10-08T21:01:46.429Z,23.08
2022-10-08T21:04:13.899Z,23.95
2022-10-08T21:06:45.554Z,23.70
2022-10-08T21:09:14.732Z,22.70
2022-10-08T21:11:42.884Z,26.15
2022-10-08T21:14:11.408Z,24.20
2022-10-08T21:16:40.244Z,25.02
2022-10-08T21:19:16.049Z,24.40
2022-10-08T21:21:43.260Z,24.98
2022-10-08T21:24:11.768Z,24.77
2022-10-08T21:26:41.619Z,24.88
2022-10-08T21:29:12.453Z,23.58
2022-10-08T21:31:42.261Z,24.23
2022-10-08T21:34:12.538Z,22.58
2022-10-08T21:36:41.513Z,22.83
2022-10-08T21:39:15.969Z,23.35
2022-10-08T21:41:43.793Z,21.52
2022-10-08T21:44:11.333Z,25.08
2022-10-08T21:46:42.272Z,22.90
2022-10-08T21:49:22.278Z,22.13
2022-10-08T21:51:49.768Z,22.17
2022-10-08T21:54:17.557Z,21.15
2022-10-08T21:56:45.358Z,21.92
2022-10-08T21:59:15.759Z,23.20
2022-10-08T22:01:49.732Z,22.95
2022-10-08T22:04:21.895Z,21.00
2022-10-08T22:06:53.134Z,20.83
2022-10-08T22:09:25.377Z,20.60
2022-10-08T22:11:53.832Z,18.67
2022-10-08T22:14:21.881Z,16.88
2022-10-08T22:16:49.909Z,15.65
2022-10-08T22:19:18.079Z,16.15
2022-10-08T22:21:45.821Z,15.05
2022-10-08T22:24:13.642Z,16.17
2022-10-08T22:26:45.308Z,11.68
2022-10-08T22:29:13.287Z,9.82
2022-10-08T22:31:41.109Z,7.45
2022-10-08T22:34:08.913Z,5.95
2022-10-08T22:36:41.696Z,6.40
2022-10-08T22:39:10.230Z,5.20
2022-10-08T22:41:38.139Z,4.88
2022-10-08T22:44:05.462Z,5.05
2022-10-08T22:46:39.489Z,4.78
2022-10-08T22:49:10.650Z,3.92
2022-10-08T22:51:39.596Z,4.20
2022-10-08T22:54:07.300Z,3.85
2022-10-08T22:56:34.671Z,4.30
2022-10-08T22:59:02.413Z,3.33
2022-10-08T23:01:30.814Z,2.92
2022-10-08T23:03:58.948Z,2.97
2022-10-08T23:06:34.856Z,3.08
2022-10-08T23:09:07.219Z,2.70
2022-10-08T23:11:35.470Z,3.22
2022-10-08T23:14:03.119Z,2.75
2022-10-08T23:16:33.502Z,2.92
2022-10-08T23:19:07.753Z,3.72
2022-10-08T23:21:36.576Z,3.67
2022-10-08T23:24:05.702Z,3.13
2022-10-08T23:26:33.551Z,3.65
2022-10-08T23:29:01.552Z,2.95
2022-10-08T23:31:36.323Z,3.38
2022-10-08T23:34:05.891Z,3.10
2022-10-08T23:36:37.818Z,3.50
2022-10-08T23:39:07.130Z,3.22
2022-10-08T23:41:35.891Z,3.33
2022-10-08T23:44:03.559Z,3.25
2022-10-08T23:46:31.748Z,3.47
2022-10-08T23:49:00.022Z,3.17
2022-10-08T23:51:29.152Z,2.88
2022-10-08T23:53:56.467Z,3.38
2022-10-08T23:56:23.989Z,3.10
2022-10-08T23:58:51.544Z,3.05
